Time;durP1;ratioP1;P1;durP2;ratioP2;P2;SDS_P1;SDS_P2;PMS_P1;PMS_P2;Temp;Humidity;BMP_temperature;BMP_pressure;BME280_temperature;BME280_humidity;BME280_pressure;Samples;Min_cycle;Max_cycle;Signal;HPM_P1;HPM_P2
2023/01/13 00:03:44;;;;;;;42.17;6.32;;;10.30;99.90;;;;;;10447370;28;20071;-25
2023/01/13 00:08:48;;;;;;;43.97;8.15;;;9.60;99.90;;;;;;10449100;28;20173;-26
2023/01/13 00:13:51;;;;;;;44.75;6.32;;;9.90;99.90;;;;;;10447548;28;20088;-25
2023/01/13 00:18:53;;;;;;;37.50;5.10;;;9.40;99.90;;;;;;10450517;28;20540;-25
2023/01/13 00:23:55;;;;;;;27.55;5.78;;;9.80;99.90;;;;;;10445076;28;20049;-25
2023/01/13 00:28:59;;;;;;;56.15;7.00;;;10.00;99.90;;;;;;10439112;28;20080;-26
2023/01/13 00:34:01;;;;;;;41.38;5.72;;;9.90;99.90;;;;;;10451396;28;20110;-26
2023/01/13 00:39:03;;;;;;;53.63;8.13;;;9.50;99.90;;;;;;10448084;28;20076;-25
2023/01/13 00:44:07;;;;;;;35.55;5.00;;;9.70;99.90;;;;;;10450112;28;20122;-26
2023/01/13 00:49:09;;;;;;;44.72;5.03;;;9.50;99.90;;;;;;10433223;28;20131;-26
2023/01/13 00:54:10;;;;;;;43.40;5.18;;;9.30;99.90;;;;;;10433516;28;20099;-28
2023/01/13 00:59:14;;;;;;;50.80;6.50;;;9.60;99.90;;;;;;10434360;28;20219;-33
2023/01/13 01:04:16;;;;;;;45.22;7.45;;;9.40;99.90;;;;;;10442488;28;20111;-25
2023/01/13 01:09:18;;;;;;;50.58;7.75;;;9.40;99.90;;;;;;10437727;28;20062;-25
2023/01/13 01:14:21;;;;;;;43.73;7.53;;;9.50;99.90;;;;;;10446031;28;20759;-25
2023/01/13 01:19:23;;;;;;;50.28;7.57;;;9.80;99.90;;;;;;10429525;28;20053;-25
2023/01/13 01:24:25;;;;;;;40.08;4.85;;;9.70;99.90;;;;;;10442646;28;20045;-25
2023/01/13 01:29:28;;;;;;;39.42;5.18;;;9.80;99.90;;;;;;10446601;28;20753;-25
2023/01/13 01:34:30;;;;;;;60.35;6.95;;;9.80;99.90;;;;;;10450370;28;20103;-26
2023/01/13 01:39:32;;;;;;;58.17;6.30;;;9.40;99.90;;;;;;10441662;28;20522;-27
2023/01/13 01:45:03;;;;;;;45.45;7.03;;;9.60;99.90;;;;;;10446813;28;20572;-26
2023/01/13 01:50:06;;;;;;;68.63;7.70;;;9.60;99.90;;;;;;10392463;28;20386;-26
2023/01/13 01:55:12;;;;;;;49.60;7.88;;;9.70;99.90;;;;;;10428413;28;20068;-25
2023/01/13 02:00:15;;;;;;;54.90;7.60;;;9.50;99.90;;;;;;10438122;28;20100;-29
2023/01/13 02:05:18;;;;;;;34.00;4.78;;;9.80;99.90;;;;;;10427616;28;20073;-27
2023/01/13 02:10:22;;;;;;;52.17;5.70;;;9.90;99.90;;;;;;10424633;28;20059;-27
2023/01/13 02:15:32;;;;;;;41.08;6.38;;;10.00;99.90;;;;;;10423609;28;20080;-26
2023/01/13 02:21:07;;;;;;;58.20;7.45;;;10.30;99.90;;;;;;10447918;28;20118;-30
2023/01/13 02:26:50;;;;;;;50.60;7.13;;;9.90;99.90;;;;;;10437119;28;20045;-25
2023/01/13 02:31:59;;;;;;;55.58;6.75;;;9.50;99.90;;;;;;10365919;28;20044;-25
2023/01/13 02:37:07;;;;;;;41.92;6.03;;;9.50;99.90;;;;;;10437369;28;20608;-28
2023/01/13 02:47:37;;;;;;;37.38;4.68;;;9.70;99.90;;;;;;10432932;28;20045;-25
2023/01/13 02:52:43;;;;;;;37.55;5.32;;;9.40;99.90;;;;;;10432416;28;20114;-25
2023/01/13 02:57:47;;;;;;;43.78;4.95;;;9.10;99.90;;;;;;10447958;28;20596;-25
2023/01/13 03:02:50;;;;;;;52.38;7.25;;;9.60;99.90;;;;;;10442721;28;20101;-28
2023/01/13 03:08:06;;;;;;;33.90;4.97;;;9.60;99.90;;;;;;10439377;28;20053;-25
2023/01/13 03:13:17;;;;;;;32.28;4.53;;;9.70;99.90;;;;;;10424186;28;20037;-25
2023/01/13 03:18:31;;;;;;;42.03;5.22;;;9.20;99.90;;;;;;10437956;28;20189;-25
2023/01/13 03:23:40;;;;;;;43.08;5.30;;;9.20;99.90;;;;;;10452098;28;20390;-25
2023/01/13 03:28:48;;;;;;;29.08;3.53;;;9.30;99.90;;;;;;10440671;28;20123;-28
2023/01/13 03:33:57;;;;;;;38.35;5.22;;;9.50;99.90;;;;;;10461440;28;20074;-29
2023/01/13 03:39:06;;;;;;;33.13;4.00;;;9.30;99.90;;;;;;10439787;28;20084;-24
2023/01/13 03:44:22;;;;;;;21.00;3.25;;;9.60;99.90;;;;;;10446991;28;20119;-24
2023/01/13 03:49:29;;;;;;;28.20;3.15;;;9.30;99.90;;;;;;10446457;28;20060;-23
2023/01/13 03:54:36;;;;;;;26.10;3.40;;;9.50;99.90;;;;;;10448902;28;20041;-25
2023/01/13 03:59:41;;;;;;;23.30;2.83;;;9.80;99.90;;;;;;10439183;28;20080;-25
2023/01/13 04:04:49;;;;;;;20.42;2.42;;;9.50;99.90;;;;;;10440536;28;20689;-26
2023/01/13 04:09:55;;;;;;;33.80;4.18;;;9.20;99.90;;;;;;10439614;28;20432;-25
2023/01/13 04:14:57;;;;;;;20.88;4.75;;;9.60;99.90;;;;;;10436651;28;20449;-25
2023/01/13 04:20:00;;;;;;;24.50;2.75;;;9.40;99.90;;;;;;10450300;28;20504;-27
2023/01/13 04:25:02;;;;;;;;;;;9.60;99.90;;;;;;10439409;28;20095;-23
2023/01/13 04:30:05;;;;;;;17.70;2.85;;;9.30;99.90;;;;;;10447460;28;19971;-26
2023/01/13 04:35:09;;;;;;;9.57;1.80;;;9.60;99.90;;;;;;10465845;28;20045;-25
2023/01/13 04:40:11;;;;;;;18.23;2.80;;;9.90;99.90;;;;;;10452725;28;20092;-27
2023/01/13 04:45:14;;;;;;;23.47;3.00;;;9.30;99.90;;;;;;10438151;28;20477;-25
2023/01/13 04:50:19;;;;;;;22.23;2.72;;;9.60;99.90;;;;;;10447986;28;20053;-26
2023/01/13 04:55:23;;;;;;;20.45;3.15;;;9.20;99.90;;;;;;10448928;28;20045;-25
2023/01/13 05:00:25;;;;;;;25.00;3.75;;;9.20;99.90;;;;;;10438989;28;20057;-27
2023/01/13 05:05:30;;;;;;;19.98;2.92;;;9.10;99.90;;;;;;10442435;28;20067;-26
2023/01/13 05:10:32;;;;;;;21.50;3.88;;;9.00;99.90;;;;;;10426411;28;20099;-25
2023/01/13 05:20:54;;;;;;;18.92;3.15;;;8.80;99.90;;;;;;10444080;28;20136;-26
2023/01/13 05:25:56;;;;;;;35.70;4.05;;;9.10;99.90;;;;;;10444614;28;20052;-26
2023/01/13 05:30:59;;;;;;;22.75;3.15;;;9.10;99.90;;;;;;10424973;28;20123;-24
2023/01/13 05:36:04;;;;;;;39.63;6.40;;;9.10;99.90;;;;;;10424707;28;20149;-28
2023/01/13 05:46:25;;;;;;;28.15;3.92;;;9.00;99.90;;;;;;10417957;28;20045;-26
2023/01/13 05:51:28;;;;;;;28.48;3.58;;;9.10;99.90;;;;;;10427946;28;20103;-24
2023/01/13 05:56:30;;;;;;;;;;;9.40;99.90;;;;;;10428519;28;20053;-26
2023/01/13 06:01:32;;;;;;;27.83;3.67;;;9.60;99.90;;;;;;10430285;28;20335;-25
2023/01/13 06:06:35;;;;;;;31.15;4.57;;;9.20;99.90;;;;;;10421975;28;20059;-26
2023/01/13 06:11:37;;;;;;;;;;;9.60;99.90;;;;;;10430222;28;20101;-26
2023/01/13 06:16:39;;;;;;;25.67;2.85;;;9.20;99.90;;;;;;10426400;28;20373;-25
2023/01/13 06:21:43;;;;;;;25.83;3.45;;;9.50;99.90;;;;;;10419280;28;20513;-26
2023/01/13 06:26:45;;;;;;;23.23;4.20;;;9.20;99.90;;;;;;10428353;28;20140;-26
2023/01/13 06:31:47;;;;;;;28.45;3.28;;;9.60;99.90;;;;;;10434524;28;20571;-25
2023/01/13 06:36:54;;;;;;;20.38;3.38;;;9.40;99.90;;;;;;10424895;28;20460;-25
2023/01/13 06:47:15;;;;;;;29.42;3.25;;;9.00;99.90;;;;;;10430990;28;20045;-33
2023/01/13 06:52:18;;;;;;;36.08;4.75;;;9.10;99.90;;;;;;10434149;28;20513;-26
2023/01/13 06:57:20;;;;;;;;;;;9.20;99.90;;;;;;10441555;28;20052;-29
2023/01/13 07:02:22;;;;;;;27.08;3.72;;;9.70;99.90;;;;;;10446703;28;20019;-28
2023/01/13 07:07:25;;;;;;;29.98;4.18;;;9.80;99.90;;;;;;10431514;28;20049;-29
